createdAt,value
2023-04-22T00:00:41.885Z,92420.00
2023-04-22T00:01:41.933Z,92420.00
2023-04-22T00:02:42.054Z,92420.00
2023-04-22T00:03:42.086Z,92424.00
2023-04-22T00:04:42.277Z,92422.00
2023-04-22T00:05:42.200Z,92422.00
2023-04-22T00:06:42.041Z,92424.00
2023-04-22T00:07:42.003Z,92420.00
2023-04-22T00:08:41.979Z,92420.00
2023-04-22T00:09:41.959Z,92422.00
2023-04-22T00:10:41.942Z,92419.00
2023-04-22T00:11:41.911Z,92420.00
2023-04-22T00:12:41.913Z,92422.00
2023-04-22T00:13:41.875Z,92419.00
2023-04-22T00:14:41.835Z,92419.00
2023-04-22T00:15:41.829Z,92424.00
2023-04-22T00:16:41.910Z,92426.00
2023-04-22T00:17:41.837Z,92424.00
2023-04-22T00:18:41.755Z,92426.00
2023-04-22T00:19:41.770Z,92426.00
2023-04-22T00:20:41.714Z,92424.00
2023-04-22T00:21:41.704Z,92424.00
2023-04-22T00:22:41.670Z,92424.00
2023-04-22T00:23:41.650Z,92426.00
2023-04-22T00:24:41.632Z,92426.00
2023-04-22T00:25:41.612Z,92428.00
2023-04-22T00:26:41.584Z,92426.00
2023-04-22T00:27:41.560Z,92426.00
2023-04-22T00:28:41.554Z,92424.00
2023-04-22T00:29:41.604Z,92426.00
2023-04-22T00:30:41.508Z,92424.00
2023-04-22T00:31:41.535Z,92430.00
2023-04-22T00:32:41.519Z,92428.00
2023-04-22T00:33:41.452Z,92432.00
2023-04-22T00:34:41.474Z,92430.00
2023-04-22T00:35:41.507Z,92424.00
2023-04-22T00:36:41.546Z,92428.00
2023-04-22T00:37:41.567Z,92430.00
2023-04-22T00:38:41.559Z,92428.00
2023-04-22T00:39:41.762Z,92426.00
2023-04-22T00:40:41.598Z,92428.00
2023-04-22T00:41:41.628Z,92426.00
2023-04-22T00:42:41.660Z,92426.00
2023-04-22T00:43:41.691Z,92428.00
2023-04-22T00:44:41.691Z,92426.00
2023-04-22T00:45:41.708Z,92426.00
2023-04-22T00:46:41.822Z,92428.00
2023-04-22T00:47:41.878Z,92428.00
2023-04-22T00:48:41.811Z,92426.00
2023-04-22T00:49:41.966Z,92426.00
2023-04-22T00:50:41.858Z,92428.00
2023-04-22T00:51:41.870Z,92428.00
2023-04-22T00:52:41.923Z,92430.00
2023-04-22T00:53:41.955Z,92432.00
2023-04-22T00:54:41.984Z,92432.00
2023-04-22T00:55:42.037Z,92436.00
2023-04-22T00:56:42.078Z,92436.00
2023-04-22T00:57:42.112Z,92438.00
2023-04-22T00:58:42.162Z,92436.00
2023-04-22T00:59:42.415Z,92438.00
2023-04-22T01:00:42.308Z,92440.00
2023-04-22T01:01:42.307Z,92442.00
2023-04-22T01:02:42.418Z,92440.00
2023-04-22T01:03:42.724Z,92440.00
2023-04-22T01:04:42.351Z,92438.00
2023-04-22T01:05:42.390Z,92442.00
2023-04-22T01:06:42.393Z,92440.00
2023-04-22T01:07:42.413Z,92442.00
2023-04-22T01:08:42.447Z,92442.00
2023-04-22T01:09:42.661Z,92444.00
2023-04-22T01:10:42.517Z,92448.00
2023-04-22T01:11:42.529Z,92448.00
2023-04-22T01:12:42.576Z,92448.00
2023-04-22T01:13:42.605Z,92446.00
2023-04-22T01:14:42.616Z,92446.00
2023-04-22T01:15:42.645Z,92448.00
2023-04-22T01:16:42.679Z,92446.00
2023-04-22T01:17:42.777Z,92444.00
2023-04-22T01:18:42.770Z,92446.00
2023-04-22T01:19:43.400Z,92446.00
2023-04-22T01:20:42.802Z,92452.00
2023-04-22T01:21:42.818Z,92450.00
2023-04-22T01:22:42.825Z,92448.00
2023-04-22T01:23:42.833Z,92450.00
2023-04-22T01:24:42.863Z,92446.00
2023-04-22T01:25:42.935Z,92444.00
2023-04-22T01:26:42.834Z,92448.00
2023-04-22T01:27:42.864Z,92444.00
2023-04-22T01:28:42.826Z,92446.00
2023-04-22T01:29:43.013Z,92444.00
2023-04-22T01:30:42.784Z,92444.00
2023-04-22T01:31:42.802Z,92446.00
2023-04-22T01:32:42.773Z,92448.00
2023-04-22T01:33:42.734Z,92448.00
2023-04-22T01:34:42.716Z,92446.00
2023-04-22T01:35:42.671Z,92448.00
2023-04-22T01:36:42.651Z,92450.00
2023-04-22T01:37:42.646Z,92448.00
2023-04-22T01:38:42.611Z,92446.00
2023-04-22T01:39:42.699Z,92448.00
2023-04-22T01:41:04.106Z,92448.00
2023-04-22T01:42:04.115Z,92450.00
2023-04-22T01:43:04.135Z,92448.00
2023-04-22T01:44:04.155Z,92450.00
2023-04-22T01:45:04.168Z,92450.00
2023-04-22T01:46:04.271Z,92452.00
2023-04-22T01:47:04.206Z,92450.00
2023-04-22T01:48:04.299Z,92450.00
2023-04-22T01:49:04.242Z,92452.00
2023-04-22T01:50:04.267Z,92456.00
2023-04-22T01:51:04.280Z,92458.00
2023-04-22T01:52:04.307Z,92454.00
2023-04-22T01:53:04.309Z,92450.00
2023-04-22T01:54:04.318Z,92454.00
2023-04-22T01:55:04.354Z,92454.00
2023-04-22T01:56:04.362Z,92456.00
2023-04-22T01:57:04.358Z,92456.00
2023-04-22T01:58:04.368Z,92456.00
2023-04-22T01:59:04.379Z,92454.00
2023-04-22T02:00:04.396Z,92452.00
2023-04-22T02:01:04.457Z,92452.00
2023-04-22T02:02:04.459Z,92452.00
2023-04-22T02:03:04.607Z,92450.00
2023-04-22T02:04:04.455Z,92452.00
2023-04-22T02:05:04.508Z,92454.00
2023-04-22T02:06:04.487Z,92454.00
2023-04-22T02:07:04.491Z,92450.00
2023-04-22T02:08:04.520Z,92446.00
2023-04-22T02:09:04.512Z,92448.00
2023-04-22T02:10:04.533Z,92452.00
2023-04-22T02:11:04.559Z,92450.00
2023-04-22T02:12:04.556Z,92450.00
2023-04-22T02:13:04.578Z,92454.00
2023-04-22T02:14:04.585Z,92454.00
2023-04-22T02:15:04.615Z,92454.00
2023-04-22T02:16:04.718Z,92452.00
2023-04-22T02:17:04.637Z,92448.00
2023-04-22T02:18:04.643Z,92446.00
2023-04-22T02:19:04.645Z,92448.00
2023-04-22T02:20:04.734Z,92448.00
2023-04-22T02:21:04.677Z,92448.00
2023-04-22T02:22:04.719Z,92448.00
2023-04-22T02:23:04.763Z,92448.00
2023-04-22T02:24:04.823Z,92444.00
2023-04-22T02:25:04.913Z,92452.00
2023-04-22T02:26:04.959Z,92456.00
2023-04-22T02:27:05.020Z,92446.00
2023-04-22T02:28:05.074Z,92450.00
2023-04-22T02:29:05.136Z,92450.00
2023-04-22T02:30:05.204Z,92452.00
2023-04-22T02:31:05.280Z,92446.00
2023-04-22T02:32:05.314Z,92450.00
2023-04-22T02:33:05.398Z,92448.00
2023-04-22T02:34:05.445Z,92446.00
2023-04-22T02:35:05.516Z,92446.00
2023-04-22T02:36:05.598Z,92446.00
2023-04-22T02:37:05.707Z,92448.00
2023-04-22T02:38:05.705Z,92454.00
2023-04-22T02:39:05.760Z,92452.00
2023-04-22T02:40:05.822Z,92452.00
2023-04-22T02:41:05.888Z,92450.00
2023-04-22T02:42:05.945Z,92458.00
2023-04-22T02:43:05.996Z,92452.00
2023-04-22T02:44:06.071Z,92452.00
2023-04-22T02:45:06.144Z,92452.00
2023-04-22T02:46:06.206Z,92452.00
2023-04-22T02:47:06.328Z,92458.00
2023-04-22T02:48:06.376Z,92460.00
2023-04-22T02:49:06.391Z,92452.00
2023-04-22T02:50:06.445Z,92452.00
2023-04-22T02:51:06.516Z,92452.00
2023-04-22T02:52:06.581Z,92452.00
2023-04-22T02:53:06.644Z,92460.00
2023-04-22T02:54:06.706Z,92458.00
2023-04-22T02:55:06.770Z,92456.00
2023-04-22T02:56:06.829Z,92454.00
2023-04-22T02:57:06.897Z,92456.00
2023-04-22T02:58:06.963Z,92460.00
2023-04-22T02:59:07.022Z,92458.00
2023-04-22T03:00:07.097Z,92458.00
2023-04-22T03:01:07.345Z,92458.00
2023-04-22T03:02:07.270Z,92458.00
2023-04-22T03:03:07.419Z,92460.00
2023-04-22T03:04:07.508Z,92462.00
2023-04-22T03:05:07.420Z,92466.00
2023-04-22T03:06:07.484Z,92462.00
2023-04-22T03:07:07.670Z,92464.00
2023-04-22T03:08:07.637Z,92460.00
2023-04-22T03:09:07.701Z,92462.00
2023-04-22T03:10:07.735Z,92462.00
2023-04-22T03:11:07.797Z,92466.00
2023-04-22T03:12:07.862Z,92466.00
2023-04-22T03:13:07.949Z,92464.00
2023-04-22T03:14:07.993Z,92464.00
2023-04-22T03:15:08.053Z,92468.00
2023-04-22T03:16:08.173Z,92464.00
2023-04-22T03:17:08.194Z,92464.00
2023-04-22T03:18:08.359Z,92458.00
2023-04-22T03:19:08.333Z,92466.00
2023-04-22T03:20:08.405Z,92460.00
2023-04-22T03:21:08.481Z,92464.00
2023-04-22T03:22:08.542Z,92460.00
2023-04-22T03:23:08.604Z,92464.00
2023-04-22T03:24:08.680Z,92470.00
2023-04-22T03:25:08.735Z,92466.00
2023-04-22T03:26:08.818Z,92458.00
2023-04-22T03:27:08.878Z,92462.00
2023-04-22T03:28:08.948Z,92468.00
2023-04-22T03:29:09.023Z,92468.00
2023-04-22T03:30:09.097Z,92470.00
2023-04-22T03:31:09.166Z,92466.00
2023-04-22T03:32:09.340Z,92460.00
2023-04-22T03:33:09.324Z,92466.00
2023-04-22T03:34:09.366Z,92462.00
2023-04-22T03:35:09.435Z,92460.00
2023-04-22T03:36:09.510Z,92464.00
2023-04-22T03:37:09.572Z,92466.00
2023-04-22T03:38:09.638Z,92466.00
2023-04-22T03:39:09.714Z,92470.00
2023-04-22T03:40:09.765Z,92464.00
2023-04-22T03:41:09.841Z,92466.00
2023-04-22T03:42:09.915Z,92474.00
2023-04-22T03:43:09.978Z,92472.00
2023-04-22T03:44:10.051Z,92474.00
2023-04-22T03:45:10.128Z,92470.00
2023-04-22T03:46:10.268Z,92468.00
2023-04-22T03:47:10.272Z,92464.00
2023-04-22T03:48:10.338Z,92464.00
2023-04-22T03:49:10.404Z,92454.00
2023-04-22T03:50:10.481Z,92460.00
2023-04-22T03:51:10.542Z,92458.00
2023-04-22T03:52:10.616Z,92460.00
2023-04-22T03:53:10.666Z,92464.00
2023-04-22T03:54:10.723Z,92450.00
2023-04-22T03:55:10.794Z,92450.00
2023-04-22T03:56:10.889Z,92448.00
2023-04-22T03:57:10.937Z,92442.00
2023-04-22T03:58:11.002Z,92450.00
2023-04-22T03:59:11.093Z,92444.00
2023-04-22T04:00:11.143Z,92450.00
2023-04-22T04:01:11.218Z,92460.00
2023-04-22T04:02:11.367Z,92460.00
2023-04-22T04:03:11.458Z,92458.00
2023-04-22T04:04:11.523Z,92460.00
2023-04-22T04:05:11.608Z,92458.00
2023-04-22T04:06:11.587Z,92464.00
2023-04-22T04:07:11.643Z,92468.00
2023-04-22T04:08:11.721Z,92472.00
2023-04-22T04:09:11.777Z,92466.00
2023-04-22T04:10:11.861Z,92466.00
2023-04-22T04:11:11.952Z,92458.00
2023-04-22T04:12:11.984Z,92464.00
2023-04-22T04:13:12.062Z,92466.00
2023-04-22T04:14:12.151Z,92474.00
2023-04-22T04:15:12.206Z,92481.00
2023-04-22T04:16:12.317Z,92470.00
2023-04-22T04:17:12.361Z,92472.00
2023-04-22T04:18:12.423Z,92475.00
2023-04-22T04:19:12.594Z,92475.00
2023-04-22T04:20:12.580Z,92474.00
2023-04-22T04:21:12.648Z,92474.00
2023-04-22T04:22:12.716Z,92472.00
2023-04-22T04:23:12.768Z,92472.00
2023-04-22T04:24:12.854Z,92470.00
2023-04-22T04:25:12.908Z,92470.00
2023-04-22T04:26:13.093Z,92470.00
2023-04-22T04:27:13.052Z,92470.00
2023-04-22T04:28:13.116Z,92472.00
2023-04-22T04:29:13.192Z,92470.00
2023-04-22T04:30:13.280Z,92466.00
2023-04-22T04:31:13.405Z,92470.00
2023-04-22T04:32:13.393Z,92474.00
2023-04-22T04:33:13.539Z,92474.00
2023-04-22T04:34:13.527Z,92472.00
2023-04-22T04:35:13.612Z,92470.00
2023-04-22T04:36:13.661Z,92470.00
2023-04-22T04:37:13.726Z,92472.00
2023-04-22T04:38:13.797Z,92474.00
2023-04-22T04:39:13.861Z,92479.00
2023-04-22T04:40:13.964Z,92474.00
2023-04-22T04:41:14.012Z,92472.00
2023-04-22T04:42:14.087Z,92474.00
2023-04-22T04:43:14.140Z,92474.00
2023-04-22T04:44:14.197Z,92477.00
2023-04-22T04:45:14.263Z,92479.00
2023-04-22T04:46:14.331Z,92481.00
2023-04-22T04:47:14.397Z,92481.00
2023-04-22T04:48:14.460Z,92481.00
2023-04-22T04:49:14.539Z,92479.00
2023-04-22T04:50:14.593Z,92485.00
2023-04-22T04:51:14.665Z,92483.00
2023-04-22T04:52:14.728Z,92483.00
2023-04-22T04:53:14.783Z,92485.00
2023-04-22T04:54:14.848Z,92483.00
2023-04-22T04:55:14.907Z,92485.00
2023-04-22T04:56:14.988Z,92485.00
2023-04-22T04:57:15.046Z,92487.00
2023-04-22T04:58:15.104Z,92487.00
2023-04-22T04:59:15.174Z,92487.00
2023-04-22T05:00:15.248Z,92487.00
2023-04-22T05:01:15.379Z,92487.00
2023-04-22T05:02:15.463Z,92487.00
2023-04-22T05:03:15.561Z,92487.00
2023-04-22T05:04:15.604Z,92481.00
2023-04-22T05:05:15.561Z,92483.00
2023-04-22T05:06:15.633Z,92485.00
2023-04-22T05:07:15.698Z,92485.00
2023-04-22T05:08:15.770Z,92477.00
2023-04-22T05:09:15.827Z,92477.00
2023-04-22T05:10:15.908Z,92479.00
2023-04-22T05:11:15.956Z,92485.00
2023-04-22T05:12:16.023Z,92483.00
2023-04-22T05:13:16.082Z,92487.00
2023-04-22T05:14:16.157Z,92493.00
2023-04-22T05:15:16.212Z,92495.00
2023-04-22T05:16:16.301Z,92495.00
2023-04-22T05:17:16.339Z,92495.00
2023-04-22T05:18:16.403Z,92493.00
2023-04-22T05:19:16.465Z,92497.00
2023-04-22T05:20:16.525Z,92501.00
2023-04-22T05:21:16.581Z,92503.00
2023-04-22T05:22:16.640Z,92501.00
2023-04-22T05:23:16.695Z,92507.00
2023-04-22T05:24:16.707Z,92509.00
2023-04-22T05:25:16.710Z,92513.00
2023-04-22T05:26:16.718Z,92511.00
2023-04-22T05:27:16.732Z,92513.00
2023-04-22T05:28:16.730Z,92515.00
2023-04-22T05:29:16.724Z,92515.00
2023-04-22T05:30:16.734Z,92515.00
2023-04-22T05:31:16.740Z,92511.00
2023-04-22T05:32:16.801Z,92515.00
2023-04-22T05:33:16.804Z,92517.00
2023-04-22T05:34:16.750Z,92517.00
2023-04-22T05:35:16.758Z,92515.00
2023-04-22T05:36:16.817Z,92517.00
2023-04-22T05:37:16.866Z,92515.00
2023-04-22T05:38:16.937Z,92517.00
2023-04-22T05:39:17.010Z,92521.00
2023-04-22T05:40:17.077Z,92519.00
2023-04-22T05:41:17.146Z,92517.00
2023-04-22T05:42:17.200Z,92517.00
2023-04-22T05:43:17.275Z,92515.00
2023-04-22T05:44:17.326Z,92519.00
2023-04-22T05:45:17.406Z,92521.00
2023-04-22T05:46:17.532Z,92519.00
2023-04-22T05:47:17.526Z,92519.00
2023-04-22T05:48:17.596Z,92515.00
2023-04-22T05:49:17.655Z,92517.00
2023-04-22T05:50:17.712Z,92515.00
2023-04-22T05:51:17.780Z,92515.00
2023-04-22T05:52:17.833Z,92513.00
2023-04-22T05:53:17.912Z,92511.00
2023-04-22T05:54:17.978Z,92513.00
2023-04-22T05:55:18.049Z,92513.00
2023-04-22T05:56:18.130Z,92513.00
2023-04-22T05:57:18.192Z,92509.00
2023-04-22T05:58:18.238Z,92513.00
2023-04-22T05:59:19.546Z,92511.00
2023-04-22T06:00:18.372Z,92511.00
2023-04-22T06:01:18.413Z,92511.00
2023-04-22T06:02:18.619Z,92515.00
2023-04-22T06:03:18.788Z,92515.00
2023-04-22T06:04:18.881Z,92517.00
2023-04-22T06:05:18.805Z,92519.00
2023-04-22T06:06:18.703Z,92521.00
2023-04-22T06:07:18.830Z,92521.00
2023-04-22T06:08:18.838Z,92521.00
2023-04-22T06:09:18.899Z,92519.00
2023-04-22T06:10:18.972Z,92519.00
2023-04-22T06:11:19.031Z,92522.00
2023-04-22T06:12:19.080Z,92522.00
2023-04-22T06:13:19.131Z,92522.00
2023-04-22T06:14:19.153Z,92522.00
2023-04-22T06:15:19.143Z,92522.00
2023-04-22T06:16:19.152Z,92522.00
2023-04-22T06:17:19.155Z,92524.00
2023-04-22T06:18:19.152Z,92522.00
2023-04-22T06:19:19.160Z,92524.00
2023-04-22T06:20:19.170Z,92522.00
2023-04-22T06:21:19.179Z,92524.00
2023-04-22T06:22:19.176Z,92526.00
2023-04-22T06:23:19.189Z,92530.00
2023-04-22T06:24:19.218Z,92524.00
2023-04-22T06:25:19.268Z,92524.00
2023-04-22T06:26:19.317Z,92522.00
2023-04-22T06:27:19.360Z,92528.00
2023-04-22T06:28:19.395Z,92524.00
2023-04-22T06:29:19.446Z,92524.00
2023-04-22T06:30:19.497Z,92524.00
2023-04-22T06:31:21.069Z,92521.00
2023-04-22T06:32:19.588Z,92522.00
2023-04-22T06:33:19.633Z,92521.00
2023-04-22T06:34:19.672Z,92519.00
2023-04-22T06:35:19.736Z,92521.00
2023-04-22T06:36:19.761Z,92517.00
2023-04-22T06:37:19.825Z,92521.00
2023-04-22T06:38:19.851Z,92519.00
2023-04-22T06:39:19.890Z,92521.00
2023-04-22T06:40:19.933Z,92519.00
2023-04-22T06:41:19.973Z,92517.00
2023-04-22T06:42:20.016Z,92517.00
2023-04-22T06:43:20.046Z,92517.00
2023-04-22T06:44:20.082Z,92515.00
2023-04-22T06:45:20.123Z,92511.00
2023-04-22T06:46:20.221Z,92513.00
2023-04-22T06:47:20.224Z,92509.00
2023-04-22T06:48:20.238Z,92513.00
2023-04-22T06:49:20.271Z,92507.00
2023-04-22T06:50:20.315Z,92511.00
2023-04-22T06:51:20.348Z,92509.00
2023-04-22T06:52:21.856Z,92505.00
2023-04-22T06:53:20.409Z,92503.00
2023-04-22T06:54:20.460Z,92509.00
2023-04-22T06:55:20.476Z,92505.00
2023-04-22T06:56:20.519Z,92501.00
2023-04-22T06:57:20.581Z,92507.00
2023-04-22T06:58:20.610Z,92509.00
2023-04-22T06:59:20.645Z,92507.00
2023-04-22T07:00:20.703Z,92507.00
2023-04-22T07:01:20.742Z,92509.00
2023-04-22T07:02:20.840Z,92507.00
2023-04-22T07:03:20.953Z,92507.00
2023-04-22T07:04:20.874Z,92503.00
2023-04-22T07:05:20.896Z,92497.00
2023-04-22T07:06:20.931Z,92499.00
2023-04-22T07:07:20.988Z,92499.00
2023-04-22T07:08:21.027Z,92499.00
2023-04-22T07:09:21.064Z,92495.00
2023-04-22T07:10:21.104Z,92493.00
2023-04-22T07:11:21.152Z,92493.00
2023-04-22T07:12:21.182Z,92491.00
2023-04-22T07:13:21.240Z,92489.00
2023-04-22T07:14:21.284Z,92485.00
2023-04-22T07:15:21.322Z,92483.00
2023-04-22T07:16:21.421Z,92487.00
2023-04-22T07:17:21.403Z,92489.00
2023-04-22T07:18:21.388Z,92485.00
2023-04-22T07:19:21.382Z,92487.00
2023-04-22T07:20:21.380Z,92485.00
2023-04-22T07:21:21.388Z,92485.00
2023-04-22T07:22:21.431Z,92487.00
2023-04-22T07:23:21.395Z,92481.00
2023-04-22T07:24:21.401Z,92481.00
2023-04-22T07:25:21.395Z,92481.00
2023-04-22T07:26:21.413Z,92479.00
2023-04-22T07:27:21.411Z,92479.00
2023-04-22T07:28:21.397Z,92479.00
2023-04-22T07:29:21.426Z,92481.00
2023-04-22T07:30:21.434Z,92477.00
2023-04-22T07:31:21.448Z,92477.00
2023-04-22T07:32:21.477Z,92475.00
2023-04-22T07:33:21.428Z,92474.00
2023-04-22T07:34:21.484Z,92474.00
2023-04-22T07:35:21.522Z,92470.00
2023-04-22T07:36:21.602Z,92470.00
2023-04-22T07:37:21.613Z,92470.00
2023-04-22T07:38:21.664Z,92466.00
2023-04-22T07:39:21.718Z,92466.00
2023-04-22T07:40:21.767Z,92470.00
2023-04-22T07:41:21.822Z,92468.00
2023-04-22T07:42:21.860Z,92464.00
2023-04-22T07:43:21.909Z,92464.00
2023-04-22T07:44:21.969Z,92462.00
2023-04-22T07:45:22.023Z,92464.00
2023-04-22T07:46:22.117Z,92458.00
2023-04-22T07:47:22.146Z,92456.00
2023-04-22T07:48:22.173Z,92458.00
2023-04-22T07:49:22.232Z,92460.00
2023-04-22T07:50:22.286Z,92456.00
2023-04-22T07:51:22.342Z,92452.00
2023-04-22T07:52:22.381Z,92452.00
2023-04-22T07:53:22.440Z,92448.00
2023-04-22T07:54:22.492Z,92450.00
2023-04-22T07:55:22.551Z,92452.00
2023-04-22T07:56:22.618Z,92450.00
2023-04-22T07:57:22.693Z,92446.00
2023-04-22T07:58:22.698Z,92448.00
2023-04-22T07:59:22.746Z,92444.00
2023-04-22T08:00:22.837Z,92442.00
2023-04-22T08:01:23.015Z,92440.00
2023-04-22T08:02:23.017Z,92436.00
2023-04-22T08:03:23.120Z,92436.00
2023-04-22T08:04:23.624Z,92434.00
2023-04-22T08:05:23.134Z,92430.00
2023-04-22T08:06:23.141Z,92426.00
2023-04-22T08:08:23.207Z,92428.00
2023-04-22T08:09:23.211Z,92428.00
2023-04-22T08:10:23.246Z,92424.00
2023-04-22T08:11:23.242Z,92426.00
2023-04-22T08:12:23.241Z,92424.00
2023-04-22T08:13:23.248Z,92422.00
2023-04-22T08:14:23.254Z,92422.00
2023-04-22T08:15:23.270Z,92420.00
2023-04-22T08:16:23.414Z,92420.00
2023-04-22T08:17:23.344Z,92419.00
2023-04-22T08:18:23.365Z,92420.00
2023-04-22T08:19:23.294Z,92419.00
2023-04-22T08:20:23.307Z,92417.00
2023-04-22T08:21:23.300Z,92415.00
2023-04-22T08:22:23.302Z,92413.00
2023-04-22T08:23:23.331Z,92413.00
2023-04-22T08:24:23.309Z,92413.00
2023-04-22T08:25:23.296Z,92413.00
2023-04-22T08:26:23.328Z,92413.00
2023-04-22T08:27:23.309Z,92413.00
2023-04-22T08:28:23.352Z,92411.00
2023-04-22T08:29:23.406Z,92407.00
2023-04-22T08:30:23.449Z,92407.00
2023-04-22T08:31:23.520Z,92407.00
2023-04-22T08:32:23.572Z,92407.00
2023-04-22T08:33:24.769Z,92405.00
2023-04-22T08:34:23.605Z,92405.00
2023-04-22T08:35:23.608Z,92405.00
2023-04-22T08:36:23.612Z,92401.00
2023-04-22T08:37:23.609Z,92399.00
2023-04-22T08:38:23.614Z,92403.00
2023-04-22T08:39:23.614Z,92403.00
2023-04-22T08:40:23.622Z,92403.00
2023-04-22T08:41:23.626Z,92401.00
2023-04-22T08:42:23.634Z,92401.00
2023-04-22T08:43:23.627Z,92399.00
2023-04-22T08:44:23.633Z,92397.00
2023-04-22T08:45:23.635Z,92399.00
2023-04-22T08:46:23.663Z,92399.00
2023-04-22T08:47:23.756Z,92395.00
2023-04-22T08:48:23.655Z,92393.00
2023-04-22T08:49:23.655Z,92393.00
2023-04-22T08:50:23.650Z,92393.00
2023-04-22T08:51:23.670Z,92389.00
2023-04-22T08:52:23.670Z,92387.00
2023-04-22T08:53:24.614Z,92385.00
2023-04-22T08:54:23.678Z,92385.00
2023-04-22T08:55:23.673Z,92381.00
2023-04-22T08:56:23.677Z,92381.00
2023-04-22T08:57:23.674Z,92379.00
2023-04-22T08:58:23.681Z,92379.00
2023-04-22T08:59:23.698Z,92377.00
2023-04-22T09:00:24.694Z,92375.00
2023-04-22T09:01:23.707Z,92379.00
2023-04-22T09:02:23.700Z,92375.00
2023-04-22T09:03:23.832Z,92373.00
2023-04-22T09:04:23.787Z,92372.00
2023-04-22T09:05:24.376Z,92370.00
2023-04-22T09:06:23.730Z,92362.00
2023-04-22T09:07:23.713Z,92366.00
2023-04-22T09:08:23.712Z,92360.00
2023-04-22T09:09:23.711Z,92358.00
2023-04-22T09:10:23.719Z,92362.00
2023-04-22T09:11:23.724Z,92358.00
2023-04-22T09:12:23.728Z,92356.00
2023-04-22T09:13:23.738Z,92354.00
2023-04-22T09:14:23.732Z,92352.00
2023-04-22T09:15:23.742Z,92350.00
2023-04-22T09:16:23.784Z,92346.00
2023-04-22T09:17:23.787Z,92344.00
2023-04-22T09:18:23.775Z,92338.00
2023-04-22T09:19:23.834Z,92340.00
2023-04-22T09:20:23.909Z,92346.00
2023-04-22T09:21:23.982Z,92342.00
2023-04-22T09:22:24.040Z,92342.00
2023-04-22T09:23:24.078Z,92340.00
2023-04-22T09:24:24.139Z,92336.00
2023-04-22T09:25:24.224Z,92334.00
2023-04-22T09:26:24.276Z,92327.00
2023-04-22T09:27:24.320Z,92327.00
2023-04-22T09:28:24.386Z,92327.00
2023-04-22T09:29:24.447Z,92321.00
2023-04-22T09:30:24.514Z,92319.00
2023-04-22T09:31:24.640Z,92319.00
2023-04-22T09:32:24.773Z,92315.00
2023-04-22T09:33:24.686Z,92317.00
2023-04-22T09:34:24.747Z,92315.00
2023-04-22T09:35:24.810Z,92315.00
2023-04-22T09:36:24.874Z,92313.00
2023-04-22T09:37:26.057Z,92311.00
2023-04-22T09:38:24.936Z,92307.00
2023-04-22T09:39:24.947Z,92305.00
2023-04-22T09:40:24.944Z,92301.00
2023-04-22T09:41:24.948Z,92299.00
2023-04-22T09:42:24.946Z,92301.00
2023-04-22T09:43:24.960Z,92297.00
2023-04-22T09:44:24.963Z,92297.00
2023-04-22T09:45:24.974Z,92299.00
2023-04-22T09:46:25.067Z,92299.00
2023-04-22T09:47:25.008Z,92299.00
2023-04-22T09:48:24.984Z,92297.00
2023-04-22T09:49:24.988Z,92291.00
2023-04-22T09:50:25.003Z,92293.00
2023-04-22T09:51:25.020Z,92289.00
2023-04-22T09:52:25.029Z,92288.00
2023-04-22T09:53:25.027Z,92286.00
2023-04-22T09:54:25.037Z,92284.00
2023-04-22T09:55:25.060Z,92282.00
2023-04-22T09:56:25.060Z,92276.00
2023-04-22T09:57:25.057Z,92280.00
2023-04-22T09:58:25.073Z,92278.00
2023-04-22T09:59:25.077Z,92276.00
2023-04-22T10:00:25.103Z,92276.00
2023-04-22T10:01:25.138Z,92272.00
2023-04-22T10:02:25.153Z,92270.00
2023-04-22T10:03:25.166Z,92268.00
2023-04-22T10:04:25.192Z,92268.00
2023-04-22T10:05:25.241Z,92270.00
2023-04-22T10:06:25.302Z,92266.00
2023-04-22T10:07:25.362Z,92262.00
2023-04-22T10:08:25.429Z,92260.00
2023-04-22T10:09:25.458Z,92262.00
2023-04-22T10:10:25.460Z,92258.00
2023-04-22T10:11:25.471Z,92258.00
2023-04-22T10:12:32.931Z,92256.00
2023-04-22T10:13:26.483Z,92260.00
2023-04-22T10:14:25.513Z,92256.00
2023-04-22T10:15:26.911Z,92254.00
2023-04-22T10:16:25.578Z,92254.00
2023-04-22T10:17:25.559Z,92252.00
2023-04-22T10:18:25.554Z,92252.00
2023-04-22T10:19:25.563Z,92246.00
2023-04-22T10:20:25.579Z,92248.00
2023-04-22T10:21:26.394Z,92246.00
2023-04-22T10:22:25.632Z,92244.00
2023-04-22T10:23:25.655Z,92241.00
2023-04-22T10:24:25.636Z,92241.00
2023-04-22T10:25:25.654Z,92242.00
2023-04-22T10:26:25.651Z,92241.00
2023-04-22T10:27:25.668Z,92241.00
2023-04-22T10:28:25.673Z,92239.00
2023-04-22T10:29:25.691Z,92237.00
2023-04-22T10:30:25.693Z,92237.00
2023-04-22T10:31:25.845Z,92233.00
2023-04-22T10:32:25.734Z,92231.00
2023-04-22T10:33:25.712Z,92229.00
2023-04-22T10:34:25.756Z,92231.00
2023-04-22T10:35:25.742Z,92229.00
2023-04-22T10:36:25.750Z,92233.00
2023-04-22T10:37:25.767Z,92231.00
2023-04-22T10:38:25.770Z,92231.00
2023-04-22T10:39:25.783Z,92231.00
2023-04-22T10:40:25.821Z,92229.00
2023-04-22T10:41:25.881Z,92231.00
2023-04-22T10:42:25.932Z,92227.00
2023-04-22T10:43:25.983Z,92225.00
2023-04-22T10:44:26.041Z,92225.00
2023-04-22T10:45:26.081Z,92221.00
2023-04-22T10:46:26.174Z,92219.00
2023-04-22T10:47:26.308Z,92217.00
2023-04-22T10:48:26.248Z,92217.00
2023-04-22T10:49:26.313Z,92217.00
2023-04-22T10:50:26.366Z,92215.00
2023-04-22T10:51:26.412Z,92213.00
2023-04-22T10:52:26.480Z,92215.00
2023-04-22T10:53:26.490Z,92213.00
2023-04-22T10:54:27.362Z,92211.00
2023-04-22T10:55:26.522Z,92209.00
2023-04-22T10:56:26.519Z,92211.00
2023-04-22T10:57:26.518Z,92207.00
2023-04-22T10:58:26.535Z,92205.00
2023-04-22T10:59:26.544Z,92205.00
2023-04-22T11:00:28.235Z,92203.00
2023-04-22T11:01:26.606Z,92201.00
2023-04-22T11:02:26.681Z,92199.00
2023-04-22T11:03:26.706Z,92201.00
2023-04-22T11:04:26.623Z,92197.00
2023-04-22T11:05:26.573Z,92199.00
2023-04-22T11:06:26.594Z,92199.00
2023-04-22T11:07:26.672Z,92201.00
2023-04-22T11:08:26.604Z,92199.00
2023-04-22T11:09:26.615Z,92197.00
2023-04-22T11:10:26.618Z,92197.00
2023-04-22T11:11:26.632Z,92197.00
2023-04-22T11:12:26.629Z,92199.00
2023-04-22T11:13:26.661Z,92197.00
2023-04-22T11:14:26.672Z,92195.00
2023-04-22T11:15:26.670Z,92194.00
2023-04-22T11:16:26.697Z,92195.00
2023-04-22T11:17:26.746Z,92195.00
2023-04-22T11:18:26.700Z,92195.00
2023-04-22T11:19:26.697Z,92192.00
2023-04-22T11:20:26.712Z,92194.00
2023-04-22T11:21:26.715Z,92190.00
2023-04-22T11:22:26.723Z,92190.00
2023-04-22T11:23:26.734Z,92188.00
2023-04-22T11:24:26.745Z,92186.00
2023-04-22T11:25:26.744Z,92188.00
2023-04-22T11:26:26.759Z,92184.00
2023-04-22T11:27:26.793Z,92184.00
2023-04-22T11:28:26.765Z,92186.00
2023-04-22T11:29:26.770Z,92182.00
2023-04-22T11:30:26.771Z,92180.00
2023-04-22T11:31:26.864Z,92182.00
2023-04-22T11:32:26.801Z,92178.00
2023-04-22T11:33:26.767Z,92178.00
2023-04-22T11:34:26.812Z,92176.00
2023-04-22T11:35:26.864Z,92178.00
2023-04-22T11:36:26.928Z,92178.00
2023-04-22T11:37:26.970Z,92178.00
2023-04-22T11:38:27.031Z,92172.00
2023-04-22T11:39:27.081Z,92176.00
2023-04-22T11:40:30.226Z,92174.00
2023-04-22T11:41:27.128Z,92174.00
2023-04-22T11:42:27.128Z,92170.00
2023-04-22T11:43:27.145Z,92168.00
2023-04-22T11:44:27.154Z,92166.00
2023-04-22T11:45:27.154Z,92164.00
2023-04-22T11:46:27.264Z,92164.00